Time;durP1;ratioP1;P1;durP2;ratioP2;P2;SDS_P1;SDS_P2;PMS_P1;PMS_P2;Temp;Humidity;BMP_temperature;BMP_pressure;BME280_temperature;BME280_humidity;BME280_pressure;Samples;Min_cycle;Max_cycle;Signal;HPM_P1;HPM_P2
2022/06/10 00:00:43;;;;;;;6.50;2.13;;;;;;;9.36;96.87;97938.44;5069574;28;20037;-63
2022/06/10 00:03:11;;;;;;;5.32;2.13;;;;;;;9.41;97.19;97943.16;5069643;28;20041;-62
2022/06/10 00:05:39;;;;;;;5.80;2.22;;;;;;;9.35;96.77;97933.25;5069462;28;20063;-62
2022/06/10 00:08:08;;;;;;;4.63;2.33;;;;;;;9.22;96.95;97932.38;5069363;28;20041;-62
2022/06/10 00:10:36;;;;;;;7.45;2.40;;;;;;;9.19;97.83;97932.84;5069408;28;20127;-62
2022/06/10 00:13:03;;;;;;;6.72;2.40;;;;;;;9.15;97.28;97939.78;5069791;28;20500;-63
2022/06/10 00:15:30;;;;;;;5.93;2.58;;;;;;;9.06;97.69;97936.56;5067759;28;20048;-63
2022/06/10 00:17:57;;;;;;;5.88;2.85;;;;;;;9.07;99.05;97935.50;5069535;28;20396;-62
2022/06/10 00:20:27;;;;;;;7.82;2.80;;;;;;;9.03;97.96;97934.28;5076779;28;20040;-62
2022/06/10 00:22:54;;;;;;;6.57;2.20;;;;;;;9.06;98.26;97933.00;5088887;28;20044;-63
2022/06/10 00:25:21;;;;;;;9.27;2.80;;;;;;;9.09;98.55;97930.69;5073910;28;20308;-63
2022/06/10 00:27:49;;;;;;;5.47;2.65;;;;;;;9.13;97.79;97933.75;5068844;28;20562;-62
2022/06/10 00:30:18;;;;;;;5.15;2.30;;;;;;;8.93;98.05;97937.56;5067941;28;20063;-63
2022/06/10 00:32:45;;;;;;;4.35;2.28;;;;;;;8.87;98.47;97937.63;5069385;28;20056;-62
2022/06/10 00:35:13;;;;;;;5.53;2.58;;;;;;;8.84;98.57;97941.59;5068277;28;20427;-63
2022/06/10 00:37:41;;;;;;;5.70;2.80;;;;;;;8.89;98.86;97936.38;5068668;28;20520;-63
2022/06/10 00:40:12;;;;;;;5.30;2.42;;;;;;;8.89;99.07;97941.75;5068277;28;20033;-63
2022/06/10 00:42:38;;;;;;;4.30;2.70;;;;;;;8.84;98.88;97942.44;5054483;28;20673;-63
2022/06/10 00:45:26;;;;;;;6.70;2.63;;;;;;;8.84;99.71;97938.91;5068017;28;20090;-63
2022/06/10 00:47:53;;;;;;;6.72;2.63;;;;;;;8.78;98.76;97940.66;5068180;28;20079;-62
2022/06/10 00:50:25;;;;;;;5.53;2.60;;;;;;;8.79;98.84;97939.59;5066643;28;20500;-63
2022/06/10 00:53:12;;;;;;;;;;;;;;;8.86;98.44;97942.22;5069135;28;20491;-63
2022/06/10 00:55:40;;;;;;;6.80;2.60;;;;;;;8.85;98.01;97932.47;5067467;28;20379;-63
2022/06/10 00:58:16;;;;;;;5.72;2.58;;;;;;;8.92;98.95;97937.78;5068604;28;20040;-63
2022/06/10 01:00:42;;;;;;;8.30;2.53;;;;;;;8.91;97.22;97936.13;5067563;28;20047;-63
2022/06/10 01:03:09;;;;;;;5.45;2.80;;;;;;;8.90;97.93;97938.00;5068812;28;20045;-62
2022/06/10 01:05:36;;;;;;;4.85;2.58;;;;;;;8.96;98.70;97942.50;5068371;28;20086;-63
2022/06/10 01:08:08;;;;;;;10.73;2.75;;;;;;;8.95;96.77;97942.72;5066927;28;20051;-63
2022/06/10 01:10:52;;;;;;;6.18;2.25;;;;;;;8.94;97.51;97939.19;5068142;28;20124;-63
2022/06/10 01:13:38;;;;;;;6.05;2.47;;;;;;;8.87;96.31;97940.31;5068264;28;20045;-63
2022/06/10 01:16:35;;;;;;;5.72;2.70;;;;;;;8.71;97.87;97939.91;5048233;28;20056;-63
2022/06/10 01:19:05;;;;;;;5.68;2.40;;;;;;;8.78;98.03;97937.94;5054001;28;20551;-63
2022/06/10 01:22:10;;;;;;;5.47;2.75;;;;;;;8.67;97.64;97939.50;5062630;28;20047;-62
2022/06/10 01:25:06;;;;;;;5.53;2.40;;;;;;;8.56;97.86;97943.78;5055727;28;20037;-62
2022/06/10 01:27:50;;;;;;;6.68;2.40;;;;;;;8.55;98.28;97938.63;5052256;28;20053;-62
2022/06/10 01:30:20;;;;;;;4.30;2.35;;;;;;;8.55;98.30;97939.44;5061750;28;20526;-63
2022/06/10 01:33:34;;;;;;;6.90;2.33;;;;;;;8.54;98.29;97940.50;5067916;28;20048;-63
2022/06/10 01:36:13;;;;;;;5.57;2.45;;;;;;;8.57;98.36;97942.75;5047630;28;20098;-63
2022/06/10 01:38:48;;;;;;;6.05;2.60;;;;;;;8.60;98.01;97944.19;5059009;28;20039;-62
2022/06/10 01:41:49;;;;;;;5.25;2.50;;;;;;;8.55;98.47;97936.75;5062224;28;20055;-62
2022/06/10 01:44:50;;;;;;;4.22;2.50;;;;;;;8.68;99.45;97941.19;5066781;28;20094;-63
2022/06/10 01:47:30;;;;;;;6.30;2.97;;;;;;;8.61;98.29;97945.81;5066993;28;20044;-62
2022/06/10 01:50:02;;;;;;;5.80;2.55;;;;;;;8.56;98.37;97946.47;5075047;28;20040;-62
2022/06/10 01:53:00;;;;;;;5.28;2.92;;;;;;;8.53;98.40;97951.50;5087333;28;20046;-62
2022/06/10 01:55:36;;;;;;;6.90;2.63;;;;;;;8.57;98.16;97941.91;5068873;28;20094;-63
2022/06/10 01:58:30;;;;;;;6.93;2.70;;;;;;;8.51;98.13;97951.69;5067690;28;20550;-62
2022/06/10 02:01:03;;;;;;;5.53;2.63;;;;;;;8.53;98.39;97946.13;5065658;28;20048;-63
2022/06/10 02:03:38;;;;;;;7.43;3.00;;;;;;;8.50;98.35;97950.06;5067267;28;20048;-63
2022/06/10 02:06:12;;;;;;;6.22;2.70;;;;;;;8.57;98.94;97948.16;5066801;28;20056;-62
2022/06/10 02:08:44;;;;;;;5.05;2.58;;;;;;;8.62;97.80;97943.97;5067451;28;20044;-64
2022/06/10 02:11:16;;;;;;;5.88;2.42;;;;;;;8.70;97.09;97946.34;5047153;28;20052;-62
2022/06/10 02:13:49;;;;;;;4.72;2.55;;;;;;;8.47;97.90;97950.50;5061745;28;20060;-62
2022/06/10 02:16:20;;;;;;;5.93;2.92;;;;;;;8.44;98.63;97954.47;5066836;28;20052;-63
2022/06/10 02:18:53;;;;;;;6.72;2.95;;;;;;;8.36;98.66;97959.34;5067057;28;20559;-62
2022/06/10 02:21:42;;;;;;;10.07;3.10;;;;;;;8.36;98.98;97962.06;5064765;28;20049;-62
2022/06/10 02:24:21;;;;;;;6.20;3.42;;;;;;;8.35;99.09;97965.78;5066453;28;20542;-63
2022/06/10 02:26:50;;;;;;;5.10;2.72;;;;;;;8.46;99.46;97963.19;5066755;28;20829;-63
2022/06/10 02:29:31;;;;;;;4.70;2.70;;;;;;;8.58;98.57;97966.00;5065217;28;20047;-63
2022/06/10 02:32:00;;;;;;;6.82;2.67;;;;;;;8.54;97.63;97959.38;5066741;28;20502;-62
2022/06/10 02:34:28;;;;;;;6.43;2.80;;;;;;;8.37;98.23;97975.28;5065357;28;20788;-63
2022/06/10 02:37:04;;;;;;;7.57;3.28;;;;;;;8.37;99.29;97971.78;5064709;28;20034;-63
2022/06/10 02:39:40;;;;;;;10.27;3.47;;;;;;;8.30;98.50;97967.25;5065062;28;20055;-63
2022/06/10 02:42:31;;;;;;;8.98;2.53;;;;;;;8.26;98.81;97973.34;5066099;28;20044;-63
2022/06/10 02:45:26;;;;;;;9.20;3.30;;;;;;;8.23;99.16;97976.47;5066539;28;20044;-63
2022/06/10 02:47:57;;;;;;;8.23;3.05;;;;;;;8.30;99.86;97975.38;5066249;28;20140;-62
2022/06/10 02:50:24;;;;;;;7.07;3.20;;;;;;;8.37;99.23;97978.00;5065662;28;20052;-63
2022/06/10 02:52:52;;;;;;;7.85;3.15;;;;;;;8.50;99.50;97971.66;5066650;28;20446;-63
2022/06/10 02:55:23;;;;;;;8.63;3.05;;;;;;;8.46;98.03;97983.94;5066023;28;20040;-62
2022/06/10 03:01:20;;;;;;;7.07;2.70;;;;;;;8.29;99.24;97981.00;5062647;28;20048;-63
2022/06/10 03:04:01;;;;;;;7.97;2.97;;;;;;;8.28;98.97;97982.88;5036118;28;20456;-62
2022/06/10 03:06:49;;;;;;;8.48;3.40;;;;;;;8.32;99.10;97988.63;5045661;28;20057;-64
2022/06/10 03:09:24;;;;;;;6.28;3.00;;;;;;;8.34;98.99;97983.84;5066230;28;20048;-63
2022/06/10 03:12:09;;;;;;;6.00;2.92;;;;;;;8.37;99.11;97987.97;5065155;28;20228;-64
2022/06/10 03:14:48;;;;;;;6.43;2.90;;;;;;;8.37;99.45;97991.47;5063354;28;20048;-63
2022/06/10 03:17:25;;;;;;;5.13;2.85;;;;;;;8.44;99.34;97992.25;5063365;28;20779;-62
2022/06/10 03:20:42;;;;;;;8.18;3.20;;;;;;;8.54;98.82;97999.03;5053149;28;20048;-62
2022/06/10 03:23:22;;;;;;;5.45;2.65;;;;;;;8.55;98.13;97998.00;5065347;28;20056;-63
2022/06/10 03:26:11;;;;;;;6.65;2.83;;;;;;;8.48;98.28;97997.22;5076957;28;20521;-63
2022/06/10 03:28:48;;;;;;;7.20;3.72;;;;;;;8.56;98.67;97996.97;5060349;28;20822;-64
2022/06/10 03:31:26;;;;;;;6.28;2.65;;;;;;;8.58;97.85;98006.47;5062574;28;20044;-63
2022/06/10 03:33:59;;;;;;;6.97;2.65;;;;;;;8.64;97.27;98010.16;5063124;28;20049;-63
2022/06/10 03:36:28;;;;;;;7.63;2.70;;;;;;;8.60;97.28;98008.97;5063478;28;20041;-63
2022/06/10 03:38:55;;;;;;;5.32;2.85;;;;;;;8.70;96.72;98014.66;5064335;28;20070;-62
2022/06/10 03:41:26;;;;;;;5.25;2.72;;;;;;;8.65;96.81;98011.81;5065245;28;20048;-63
2022/06/10 03:43:54;;;;;;;6.85;2.80;;;;;;;8.63;97.08;98008.53;5063833;28;20090;-63
2022/06/10 03:46:25;;;;;;;8.52;2.90;;;;;;;8.61;97.54;98012.47;5064568;28;20043;-62
2022/06/10 03:48:54;;;;;;;6.43;2.95;;;;;;;8.50;97.99;98014.00;5065326;28;20064;-62
2022/06/10 03:51:22;;;;;;;6.47;2.78;;;;;;;8.45;98.01;98018.19;5075989;28;20062;-63
2022/06/10 03:53:48;;;;;;;12.10;3.00;;;;;;;8.54;99.36;98017.94;5081073;28;20677;-63
2022/06/10 03:56:23;;;;;;;5.40;3.00;;;;;;;8.54;97.74;98015.22;5065091;28;20053;-62
2022/06/10 03:58:50;;;;;;;5.60;2.75;;;;;;;8.54;97.62;98015.22;5065614;28;20040;-63
2022/06/10 04:01:18;;;;;;;6.97;3.28;;;;;;;8.56;97.83;98018.56;5065231;28;20105;-63
2022/06/10 04:03:44;;;;;;;8.35;3.35;;;;;;;8.49;97.54;98021.28;5065320;28;20048;-63
2022/06/10 04:06:11;;;;;;;10.93;3.38;;;;;;;8.42;97.94;98032.16;5064755;28;20041;-61
2022/06/10 04:08:58;;;;;;;9.30;3.08;;;;;;;8.42;98.06;98034.84;5069732;28;20095;-62
2022/06/10 04:11:31;;;;;;;7.25;3.15;;;;;;;8.47;98.19;98036.88;5072173;28;20106;-61
2022/06/10 04:13:57;;;;;;;4.53;2.90;;;;;;;8.50;98.06;98036.44;5067249;28;20384;-62
2022/06/10 04:16:26;;;;;;;6.78;3.05;;;;;;;8.52;98.20;98041.59;5067949;28;20803;-62
2022/06/10 04:18:53;;;;;;;8.25;3.28;;;;;;;8.59;98.09;98032.41;5076828;28;20056;-61
2022/06/10 04:21:19;;;;;;;6.30;2.75;;;;;;;8.67;98.28;98035.88;5062688;28;20407;-61
2022/06/10 04:23:46;;;;;;;6.30;3.25;;;;;;;8.83;98.39;98040.72;5067017;28;20040;-62
2022/06/10 04:26:12;;;;;;;9.10;3.25;;;;;;;8.94;96.89;98039.13;5074770;28;20048;-61
2022/06/10 04:28:39;;;;;;;8.48;3.55;;;;;;;8.96;96.68;98034.31;5076711;28;20044;-62
2022/06/10 04:31:05;;;;;;;6.90;3.08;;;;;;;9.09;96.73;98037.91;5062493;28;20065;-62
2022/06/10 04:33:34;;;;;;;5.30;3.60;;;;;;;9.17;96.63;98039.47;5066609;28;20697;-62
2022/06/10 04:36:01;;;;;;;5.78;2.90;;;;;;;9.35;96.27;98039.47;5062869;28;20059;-62
2022/06/10 04:38:27;;;;;;;8.00;3.67;;;;;;;9.50;95.04;98046.34;5075258;28;20044;-61
2022/06/10 04:40:54;;;;;;;6.35;3.30;;;;;;;9.47;95.61;98049.53;5061500;28;20043;-61
2022/06/10 04:43:22;;;;;;;6.25;3.03;;;;;;;9.58;95.18;98056.84;5065839;28;20049;-61
2022/06/10 04:45:52;;;;;;;7.93;3.38;;;;;;;9.70;94.99;98048.78;5066965;28;20032;-62
2022/06/10 04:48:19;;;;;;;8.30;3.00;;;;;;;9.83;94.81;98047.78;5075318;28;20563;-61
2022/06/10 04:50:47;;;;;;;6.70;2.60;;;;;;;9.88;93.91;98049.81;5077738;28;20098;-61
2022/06/10 04:53:15;;;;;;;5.80;2.83;;;;;;;9.94;93.65;98054.28;5080372;28;20040;-60
2022/06/10 04:55:41;;;;;;;7.30;2.83;;;;;;;9.94;93.67;98050.75;5066615;28;20404;-51
2022/06/10 04:58:08;;;;;;;14.07;3.25;;;;;;;10.00;93.73;98050.63;5066088;28;20049;-56
2022/06/10 05:00:39;;;;;;;6.35;2.65;;;;;;;10.03;94.13;98054.78;5066346;28;20036;-56
2022/06/10 05:03:07;;;;;;;7.97;3.03;;;;;;;10.17;94.28;98062.69;5072037;28;20054;-58
2022/06/10 05:05:34;;;;;;;8.50;3.08;;;;;;;10.24;93.59;98061.53;5067345;28;20056;-55
2022/06/10 05:08:01;;;;;;;6.20;2.83;;;;;;;10.43;92.75;98061.41;5065135;28;20422;-56
2022/06/10 05:10:28;;;;;;;8.50;2.65;;;;;;;10.58;92.66;98060.19;5065048;28;20492;-61
2022/06/10 05:12:55;;;;;;;6.95;2.67;;;;;;;10.60;92.30;98061.59;5068070;28;20481;-54
2022/06/10 05:15:22;;;;;;;9.93;3.10;;;;;;;10.64;92.16;98059.22;5066310;28;20048;-57
2022/06/10 05:17:51;;;;;;;6.60;2.60;;;;;;;10.72;91.84;98063.50;5069555;28;20048;-57
2022/06/10 05:20:25;;;;;;;8.52;3.00;;;;;;;10.77;91.58;98064.41;5066546;28;20063;-57
2022/06/10 05:22:51;;;;;;;10.55;2.95;;;;;;;10.87;90.90;98068.44;5066945;28;20499;-55
2022/06/10 05:25:18;;;;;;;5.28;3.08;;;;;;;10.97;90.97;98065.09;5067321;28;20621;-56
2022/06/10 05:27:46;;;;;;;5.65;2.65;;;;;;;11.11;90.23;98060.25;5065783;28;20097;-56
2022/06/10 05:30:16;;;;;;;6.05;2.80;;;;;;;11.24;90.30;98070.03;5065593;28;20070;-57
2022/06/10 05:32:43;;;;;;;5.85;2.42;;;;;;;11.40;90.42;98077.41;5077342;28;20051;-57
2022/06/10 05:35:09;;;;;;;7.30;2.30;;;;;;;11.53;89.86;98072.75;5072215;28;20051;-56
2022/06/10 05:37:36;;;;;;;7.05;2.50;;;;;;;11.66;90.14;98077.09;5078414;28;20044;-57
2022/06/10 05:40:16;;;;;;;4.30;2.40;;;;;;;11.77;89.90;98081.66;5062845;28;20051;-54
2022/06/10 05:42:45;;;;;;;8.73;2.83;;;;;;;11.87;88.48;98085.63;5065179;28;20044;-54
2022/06/10 05:45:14;;;;;;;5.10;3.38;;;;;;;11.97;88.05;98081.22;5064856;28;20040;-53
2022/06/10 05:47:41;;;;;;;5.28;2.58;;;;;;;12.13;87.08;98088.84;5060875;28;20047;-56
2022/06/10 05:50:13;;;;;;;6.05;2.25;;;;;;;12.22;86.34;98085.47;5067396;28;20094;-56
2022/06/10 05:52:40;;;;;;;6.95;2.22;;;;;;;12.28;83.08;98089.09;5075875;28;20040;-54
2022/06/10 05:55:09;;;;;;;6.68;2.47;;;;;;;12.43;83.09;98095.84;5064826;28;20048;-56
2022/06/10 05:57:36;;;;;;;3.67;1.73;;;;;;;12.57;82.15;98094.44;5075637;28;20047;-57
2022/06/10 06:00:05;;;;;;;8.18;2.13;;;;;;;12.69;80.49;98097.09;5064349;28;20048;-57
2022/06/10 06:02:32;;;;;;;3.75;1.85;;;;;;;12.85;80.20;98094.59;5065730;28;20056;-56
2022/06/10 06:04:59;;;;;;;3.17;1.52;;;;;;;12.95;78.89;98097.47;5069857;28;20059;-58
2022/06/10 06:07:28;;;;;;;8.15;2.00;;;;;;;13.05;76.78;98095.97;5085357;28;20093;-57
2022/06/10 06:09:55;;;;;;;5.30;1.90;;;;;;;13.14;76.58;98098.03;5064327;28;20515;-57
2022/06/10 06:12:22;;;;;;;5.20;1.85;;;;;;;13.20;77.55;98093.44;5064332;28;20067;-57
2022/06/10 06:14:49;;;;;;;4.75;1.65;;;;;;;13.28;77.18;98097.66;5064992;28;20047;-58
2022/06/10 06:17:19;;;;;;;3.90;1.50;;;;;;;13.36;77.21;98099.09;5063565;28;20114;-57
2022/06/10 06:19:46;;;;;;;4.18;1.80;;;;;;;13.42;76.67;98108.16;5064407;28;20059;-57
2022/06/10 06:22:13;;;;;;;6.13;2.10;;;;;;;13.51;76.22;98106.66;5065460;28;20069;-55
2022/06/10 06:24:39;;;;;;;6.18;2.35;;;;;;;13.65;77.66;98109.84;5063728;28;20044;-56
2022/06/10 06:27:08;;;;;;;4.65;1.75;;;;;;;13.77;77.99;98105.06;5058014;28;20162;-56
2022/06/10 06:29:34;;;;;;;5.53;2.05;;;;;;;13.86;77.99;98104.63;5064852;28;20051;-57
2022/06/10 06:32:01;;;;;;;5.82;1.90;;;;;;;13.97;77.47;98106.38;5063902;28;20056;-56
2022/06/10 06:34:28;;;;;;;5.22;1.80;;;;;;;14.07;77.16;98105.66;5068490;28;20597;-58
2022/06/10 06:36:55;;;;;;;11.45;2.65;;;;;;;14.49;76.99;98106.03;5062971;28;20446;-56
2022/06/10 06:39:24;;;;;;;7.18;2.20;;;;;;;14.65;75.74;98109.72;5064591;28;20040;-57
2022/06/10 06:41:52;;;;;;;3.92;1.77;;;;;;;14.57;73.49;98116.47;5062470;28;20074;-57
2022/06/10 06:44:30;;;;;;;5.90;1.63;;;;;;;14.58;75.30;98107.19;5053066;28;20036;-58
2022/06/10 06:46:56;;;;;;;6.63;2.03;;;;;;;14.74;75.19;98105.41;5062119;28;20040;-57
2022/06/10 06:49:25;;;;;;;4.55;2.00;;;;;;;14.85;75.00;98114.50;5061796;28;20054;-57
2022/06/10 06:51:53;;;;;;;4.50;1.85;;;;;;;14.89;74.20;98115.63;5064009;28;20526;-53
2022/06/10 06:54:20;;;;;;;5.55;1.75;;;;;;;14.97;74.56;98116.25;5059631;28;20095;-58
2022/06/10 06:56:48;;;;;;;7.32;1.88;;;;;;;15.20;74.61;98110.41;5061500;28;20044;-58
2022/06/10 06:59:14;;;;;;;7.10;2.13;;;;;;;15.18;73.34;98106.25;5063418;28;20052;-55
2022/06/10 07:01:41;;;;;;;5.97;2.35;;;;;;;15.28;73.13;98109.06;5063265;28;20052;-56
2022/06/10 07:04:08;;;;;;;7.15;1.80;;;;;;;15.39;71.68;98111.84;5067838;28;20661;-57
2022/06/10 07:06:38;;;;;;;5.20;1.20;;;;;;;15.59;67.98;98108.41;5065616;28;20045;-56
2022/06/10 07:09:05;;;;;;;5.05;1.33;;;;;;;15.64;70.05;98113.88;5061122;28;20784;-57
2022/06/10 07:11:32;;;;;;;4.60;1.58;;;;;;;15.62;71.29;98113.31;5069340;28;20568;-57
2022/06/10 07:13:59;;;;;;;3.95;1.52;;;;;;;15.55;71.77;98112.75;5064702;28;20052;-63
2022/06/10 07:16:26;;;;;;;4.72;1.77;;;;;;;15.55;72.63;98110.81;5063958;28;20048;-57
2022/06/10 07:18:52;;;;;;;4.75;1.83;;;;;;;15.78;72.71;98107.91;5070140;28;20123;-58
2022/06/10 07:21:19;;;;;;;2.95;1.40;;;;;;;15.96;71.54;98106.63;5072229;28;20047;-57
2022/06/10 07:23:46;;;;;;;4.95;1.38;;;;;;;15.96;69.72;98112.91;5068398;28;20316;-59
2022/06/10 07:26:12;;;;;;;4.57;1.73;;;;;;;16.08;70.92;98106.38;5070651;28;20063;-58
2022/06/10 07:28:39;;;;;;;4.88;1.73;;;;;;;16.32;70.97;98114.88;5080181;28;20040;-59
2022/06/10 07:31:05;;;;;;;4.00;1.70;;;;;;;16.36;69.29;98112.41;5069693;28;20063;-58
2022/06/10 07:33:35;;;;;;;7.78;1.52;;;;;;;16.35;67.59;98110.78;5074967;28;20109;-57
2022/06/10 07:36:05;;;;;;;5.47;1.48;;;;;;;16.40;67.82;98107.25;5069324;28;20054;-55
2022/06/10 07:38:31;;;;;;;4.75;1.75;;;;;;;16.41;67.44;98108.88;5074250;28;20388;-58
2022/06/10 07:43:43;;;;;;;5.60;2.10;;;;;;;16.67;69.75;98108.88;5066056;28;20568;-59
2022/06/10 07:46:16;;;;;;;2.67;1.48;;;;;;;16.64;68.40;98110.25;5072467;28;20516;-58
2022/06/10 07:48:44;;;;;;;4.35;1.58;;;;;;;16.54;68.07;98107.53;5062597;28;20049;-56
2022/06/10 07:51:11;;;;;;;7.43;1.88;;;;;;;16.36;67.78;98109.69;5061660;28;20075;-58
2022/06/10 07:53:39;;;;;;;5.13;1.35;;;;;;;16.42;69.93;98110.50;5060127;28;20047;-58
2022/06/10 07:56:06;;;;;;;5.13;1.83;;;;;;;16.54;69.09;98107.53;5060916;28;20461;-58
2022/06/10 07:58:33;;;;;;;4.75;1.90;;;;;;;16.76;67.15;98112.69;5060853;28;20049;-57
2022/06/10 08:00:59;;;;;;;4.30;1.58;;;;;;;16.82;67.38;98108.06;5056767;28;20041;-58
2022/06/10 08:03:27;;;;;;;3.17;1.40;;;;;;;16.98;67.54;98117.88;5062049;28;20047;-58
2022/06/10 08:05:54;;;;;;;4.05;1.70;;;;;;;16.80;66.79;98107.53;5063211;28;20120;-58
2022/06/10 08:08:22;;;;;;;5.25;1.67;;;;;;;16.86;66.61;98106.41;5061699;28;20049;-55
2022/06/10 08:10:49;;;;;;;5.05;1.70;;;;;;;16.86;66.07;98111.88;5062970;28;20131;-56
2022/06/10 08:13:15;;;;;;;5.78;1.60;;;;;;;16.65;67.00;98106.41;5059878;28;20119;-58
2022/06/10 08:15:43;;;;;;;7.72;1.73;;;;;;;16.69;67.57;98104.78;5062864;28;20071;-53
2022/06/10 08:18:13;;;;;;;6.40;1.80;;;;;;;17.00;66.90;98106.66;5058919;28;20056;-58
2022/06/10 08:23:29;;;;;;;5.30;1.63;;;;;;;17.20;64.66;98108.56;5061198;28;20040;-57
2022/06/10 08:25:58;;;;;;;7.25;1.88;;;;;;;17.13;63.32;98110.75;5065646;28;20048;-58
2022/06/10 08:28:26;;;;;;;4.28;1.50;;;;;;;16.94;65.22;98105.84;5062916;28;20049;-59
2022/06/10 08:30:53;;;;;;;3.80;1.50;;;;;;;16.98;66.26;98103.38;5066129;28;20037;-55
2022/06/10 08:33:19;;;;;;;3.92;1.63;;;;;;;16.93;65.25;98103.38;5063435;28;20044;-58
2022/06/10 08:35:46;;;;;;;3.65;1.50;;;;;;;17.09;64.98;98105.03;5063555;28;20047;-58
2022/06/10 08:38:15;;;;;;;4.22;1.30;;;;;;;17.14;65.17;98109.69;5063071;28;20090;-56
2022/06/10 08:40:55;;;;;;;4.95;1.95;;;;;;;17.35;63.13;98109.59;5062804;28;20040;-56
2022/06/10 08:43:42;;;;;;;3.83;1.63;;;;;;;17.47;62.10;98112.84;5062280;28;20049;-58
2022/06/10 08:46:19;;;;;;;7.18;1.60;;;;;;;17.58;61.71;98112.84;5059226;28;20044;-55
2022/06/10 08:49:24;;;;;;;5.03;1.60;;;;;;;17.77;60.52;98116.56;5063155;28;20119;-58
2022/06/10 08:52:04;;;;;;;5.10;2.00;;;;;;;18.02;60.77;98109.31;5058624;28;20048;-58
2022/06/10 08:54:43;;;;;;;9.98;2.10;;;;;;;18.11;58.44;98109.59;5059454;28;20063;-59
2022/06/10 08:57:25;;;;;;;8.48;1.80;;;;;;;18.09;57.41;98113.72;5068705;28;20143;-59
2022/06/10 08:59:55;;;;;;;4.97;1.70;;;;;;;18.44;57.20;98107.19;5063795;28;20503;-58
2022/06/10 09:03:04;;;;;;;7.75;1.90;;;;;;;18.74;57.78;98109.13;5064002;28;20063;-59
2022/06/10 09:05:36;;;;;;;3.80;1.00;;;;;;;19.17;56.52;98103.00;5065105;28;20563;-59
2022/06/10 09:08:06;;;;;;;5.38;1.70;;;;;;;19.18;56.27;98102.69;5066193;28;20049;-58
2022/06/10 09:10:57;;;;;;;4.28;1.40;;;;;;;19.29;54.56;98116.31;5068101;28;20040;-58
2022/06/10 09:13:39;;;;;;;5.65;1.42;;;;;;;19.41;54.77;98113.97;5065689;28;20118;-58
2022/06/10 09:16:15;;;;;;;5.72;1.33;;;;;;;19.27;56.27;98111.09;5060572;28;20041;-59
2022/06/10 09:19:15;;;;;;;7.28;1.70;;;;;;;19.03;55.58;98111.88;5061832;28;20048;-58
2022/06/10 09:22:03;;;;;;;4.40;1.55;;;;;;;18.93;54.02;98112.78;5060559;28;20067;-57
2022/06/10 09:24:51;;;;;;;4.70;1.65;;;;;;;18.97;54.95;98119.34;5062827;28;20044;-57
2022/06/10 09:27:27;;;;;;;4.07;1.42;;;;;;;19.00;54.73;98109.72;5059605;28;20049;-57
2022/06/10 09:29:57;;;;;;;7.20;2.03;;;;;;;18.67;56.12;98112.19;5062703;28;20044;-54
2022/06/10 09:32:51;;;;;;;5.95;1.70;;;;;;;18.92;56.38;98124.06;5062775;28;20044;-57
2022/06/10 09:35:41;;;;;;;5.00;1.35;;;;;;;19.19;55.06;98111.72;5060340;28;20067;-55
2022/06/10 09:38:14;;;;;;;8.75;1.67;;;;;;;19.67;53.89;98105.44;5058478;28;20044;-55
2022/06/10 09:40:57;;;;;;;4.07;1.50;;;;;;;19.93;53.54;98105.09;5074724;28;20133;-57
2022/06/10 09:44:05;;;;;;;5.90;1.90;;;;;;;20.17;52.84;98104.25;5067291;28;20455;-57
2022/06/10 09:47:01;;;;;;;6.63;1.90;;;;;;;19.95;53.49;98096.56;5064451;28;20067;-57
2022/06/10 09:49:27;;;;;;;5.50;1.85;;;;;;;20.06;52.75;98108.25;5067122;28;20106;-53
2022/06/10 09:52:25;;;;;;;8.02;2.20;;;;;;;20.13;52.30;98104.00;5080047;28;20029;-56
2022/06/10 09:55:00;;;;;;;7.13;1.70;;;;;;;19.54;52.47;98106.16;5066118;28;20036;-56
2022/06/10 09:57:32;;;;;;;6.80;1.52;;;;;;;19.48;53.49;98102.63;5065075;28;20045;-60
2022/06/10 10:00:21;;;;;;;4.65;1.50;;;;;;;19.68;53.13;98098.81;5051117;28;20246;-58
2022/06/10 10:03:13;;;;;;;3.92;1.42;;;;;;;19.87;53.45;98096.09;5057714;28;20504;-63
2022/06/10 10:06:07;;;;;;;6.47;1.38;;;;;;;19.85;53.64;98103.00;5063278;28;20157;-59
2022/06/10 10:08:57;;;;;;;5.20;1.38;;;;;;;19.75;54.67;98092.94;5062721;28;20033;-58
2022/06/10 10:11:54;;;;;;;4.25;1.35;;;;;;;19.88;54.01;98096.91;5061884;28;20310;-58
2022/06/10 10:14:41;;;;;;;6.32;2.10;;;;;;;19.68;53.27;98087.81;5061127;28;20045;-57
2022/06/10 10:17:26;;;;;;;5.90;1.70;;;;;;;19.74;53.01;98088.56;5062147;28;20047;-59
2022/06/10 10:20:00;;;;;;;5.60;1.70;;;;;;;19.69;54.74;98086.72;5066334;28;20045;-56
2022/06/10 10:22:51;;;;;;;4.50;1.58;;;;;;;19.70;53.20;98080.13;5062521;28;20035;-59
2022/06/10 10:25:23;;;;;;;5.97;2.22;;;;;;;19.99;52.79;98076.47;5061362;28;20049;-57
2022/06/10 10:27:52;;;;;;;4.13;1.75;;;;;;;20.27;53.78;98073.03;5063737;28;20041;-58
2022/06/10 10:30:23;;;;;;;4.75;1.38;;;;;;;20.23;51.79;98083.00;5063590;28;20048;-58
2022/06/10 10:33:13;;;;;;;5.20;1.55;;;;;;;20.48;51.04;98081.75;5058393;28;20078;-59
2022/06/10 10:35:45;;;;;;;7.32;1.67;;;;;;;20.49;49.67;98090.84;5057081;28;20067;-59
2022/06/10 10:38:13;;;;;;;;;;;;;;;20.13;49.17;98084.75;5063922;28;20074;-62
2022/06/10 10:40:46;;;;;;;5.43;1.45;;;;;;;20.39;49.48;98087.13;5062980;28;19999;-62
2022/06/10 10:43:19;;;;;;;5.78;1.77;;;;;;;20.52;49.58;98084.72;5060564;28;20319;-61
2022/06/10 10:46:02;;;;;;;4.40;1.85;;;;;;;20.46;47.22;98078.50;5076375;28;20083;-63
2022/06/10 10:48:34;;;;;;;5.60;1.15;;;;;;;20.25;46.24;98070.59;5062462;28;20056;-63
2022/06/10 10:51:09;;;;;;;4.03;1.63;;;;;;;20.52;49.54;98077.28;5065993;28;20051;-61
2022/06/10 10:54:03;;;;;;;5.07;1.52;;;;;;;20.72;48.44;98077.25;5067081;28;20094;-60
2022/06/10 10:56:33;;;;;;;6.88;2.00;;;;;;;20.78;47.87;98081.53;5078222;28;20048;-63
2022/06/10 10:59:00;;;;;;;4.15;1.48;;;;;;;21.27;47.21;98078.47;5057877;28;20048;-63
2022/06/10 11:01:43;;;;;;;5.07;1.50;;;;;;;21.82;45.27;98076.84;5057013;28;20037;-62
2022/06/10 11:04:33;;;;;;;5.15;1.25;;;;;;;22.08;46.37;98081.78;5059676;28;20601;-61
2022/06/10 11:07:11;;;;;;;5.05;1.40;;;;;;;22.08;46.55;98079.03;5059059;28;20605;-62
2022/06/10 11:10:06;;;;;;;4.18;1.60;;;;;;;22.21;44.39;98083.69;5058742;28;20149;-63
2022/06/10 11:12:34;;;;;;;3.70;1.20;;;;;;;22.22;44.70;98077.03;5065180;28;20051;-64
2022/06/10 11:15:05;;;;;;;4.60;1.10;;;;;;;22.26;44.05;98077.22;5062798;28;20526;-64
2022/06/10 11:17:36;;;;;;;6.03;1.50;;;;;;;22.01;43.97;98071.19;5070457;28;20043;-63
2022/06/10 11:20:29;;;;;;;4.30;1.30;;;;;;;22.09;42.04;98069.63;5076614;28;20044;-62
2022/06/10 11:23:22;;;;;;;3.10;1.35;;;;;;;21.94;42.50;98066.09;5071533;28;20048;-63
2022/06/10 11:26:11;;;;;;;4.18;1.23;;;;;;;21.95;41.41;98070.47;5062872;28;20439;-61
2022/06/10 11:28:41;;;;;;;7.63;1.70;;;;;;;22.58;42.62;98067.09;5056852;28;20037;-62
2022/06/10 11:31:18;;;;;;;6.20;1.70;;;;;;;22.73;41.85;98065.06;5057346;28;20029;-65
2022/06/10 11:33:47;;;;;;;4.43;1.20;;;;;;;23.09;40.21;98064.13;5065953;28;20072;-63
2022/06/10 11:36:41;;;;;;;4.28;1.33;;;;;;;22.70;41.75;98063.75;5063002;28;20178;-63
2022/06/10 11:39:25;;;;;;;4.28;1.17;;;;;;;23.33;41.07;98065.66;5056991;28;20063;-65
2022/06/10 11:42:07;;;;;;;5.32;1.42;;;;;;;23.10;40.19;98062.16;5062487;28;20040;-62
2022/06/10 11:44:40;;;;;;;6.30;1.45;;;;;;;22.19;41.63;98060.28;5057822;28;20040;-61
2022/06/10 11:47:19;;;;;;;5.70;1.67;;;;;;;22.53;42.72;98058.09;5058794;28;20045;-63
2022/06/10 11:50:21;;;;;;;5.65;1.42;;;;;;;23.22;43.42;98056.84;5055426;28;20424;-61
2022/06/10 11:52:55;;;;;;;6.03;1.55;;;;;;;23.12;41.38;98051.63;5064677;28;20060;-61
2022/06/10 11:55:27;;;;;;;6.00;1.90;;;;;;;22.69;41.03;98059.38;5062778;28;20482;-63
2022/06/10 12:01:21;;;;;;;4.47;1.60;;;;;;;23.04;40.32;98053.22;5061091;28;20036;-64
2022/06/10 12:04:02;;;;;;;5.45;1.20;;;;;;;22.83;40.85;98055.69;5060655;28;20078;-63
2022/06/10 12:06:38;;;;;;;5.68;1.60;;;;;;;22.67;41.00;98050.56;5058844;28;20044;-64
2022/06/10 12:09:29;;;;;;;7.22;1.50;;;;;;;22.96;41.54;98046.50;5054498;28;20086;-64
2022/06/10 12:12:19;;;;;;;6.80;1.70;;;;;;;22.89;39.76;98048.09;5062416;28;20041;-64
2022/06/10 12:14:50;;;;;;;4.00;1.40;;;;;;;22.44;41.62;98039.53;5062169;28;20048;-64
2022/06/10 12:17:24;;;;;;;7.00;1.73;;;;;;;22.09;42.92;98031.00;5063285;28;20052;-64
2022/06/10 12:20:04;;;;;;;6.53;1.55;;;;;;;22.37;42.62;98030.09;5063186;28;20045;-65
2022/06/10 12:22:32;;;;;;;6.82;1.73;;;;;;;22.68;43.05;98027.38;5062490;28;20252;-64